sensor_id;sensor_type;location;lat;lon;timestamp;temperature;humidity
26081;DHT22;13991;51.174;4.438;2023-11-18T13:14:16;10.10;99.90
26081;DHT22;13991;51.174;4.438;2023-11-18T13:42:23;9.60;99.90
26081;DHT22;13991;51.174;4.438;2023-11-18T13:44:53;10.00;99.90
26081;DHT22;13991;51.174;4.438;2023-11-18T13:47:26;10.00;99.90
26081;DHT22;13991;51.174;4.438;2023-11-18T13:49:57;10.00;99.90
26081;DHT22;13991;51.174;4.438;2023-11-18T13:52:27;10.00;99.90
26081;DHT22;13991;51.174;4.438;2023-11-18T13:55:01;9.90;99.90
26081;DHT22;13991;51.174;4.438;2023-11-18T13:57:32;10.10;99.90
26081;DHT22;13991;51.174;4.438;2023-11-18T14:00:00;10.10;99.90
26081;DHT22;13991;51.174;4.438;2023-11-18T14:02:27;10.20;99.90
26081;DHT22;13991;51.174;4.438;2023-11-18T14:04:54;10.40;99.90
26081;DHT22;13991;51.174;4.438;2023-11-18T14:07:23;10.40;99.90
26081;DHT22;13991;51.174;4.438;2023-11-18T14:09:53;10.40;99.90
26081;DHT22;13991;51.174;4.438;2023-11-18T14:12:22;10.30;99.90
26081;DHT22;13991;51.174;4.438;2023-11-18T14:14:47;10.30;99.90
26081;DHT22;13991;51.174;4.438;2023-11-18T14:40:04;10.70;99.90
26081;DHT22;13991;51.174;4.438;2023-11-18T14:42:34;10.50;99.90
26081;DHT22;13991;51.174;4.438;2023-11-18T14:45:01;10.50;99.90
26081;DHT22;13991;51.174;4.438;2023-11-18T14:47:27;10.60;99.90
26081;DHT22;13991;51.174;4.438;2023-11-18T14:50:00;10.60;99.90
26081;DHT22;13991;51.174;4.438;2023-11-18T15:15:39;10.70;99.90
26081;DHT22;13991;51.174;4.438;2023-11-18T15:18:05;10.70;99.90
26081;DHT22;13991;51.174;4.438;2023-11-18T15:20:43;10.50;99.90
26081;DHT22;13991;51.174;4.438;2023-11-18T15:23:12;10.70;99.90
26081;DHT22;13991;51.174;4.438;2023-11-18T15:25:38;10.80;99.90
26081;DHT22;13991;51.174;4.438;2023-11-18T15:28:05;10.80;99.90
26081;DHT22;13991;51.174;4.438;2023-11-18T15:30:40;10.80;99.90
26081;DHT22;13991;51.174;4.438;2023-11-18T15:33:06;10.90;99.90
26081;DHT22;13991;51.174;4.438;2023-11-18T15:35:35;11.10;99.90
26081;DHT22;13991;51.174;4.438;2023-11-18T15:38:11;11.10;99.90
26081;DHT22;13991;51.174;4.438;2023-11-18T15:40:42;11.20;99.90
26081;DHT22;13991;51.174;4.438;2023-11-18T15:43:08;11.20;99.90
26081;DHT22;13991;51.174;4.438;2023-11-18T15:45:37;11.30;99.90
26081;DHT22;13991;51.174;4.438;2023-11-18T15:48:03;11.30;99.90
26081;DHT22;13991;51.174;4.438;2023-11-18T15:50:35;11.00;99.90
26081;DHT22;13991;51.174;4.438;2023-11-18T15:53:03;11.00;99.90
26081;DHT22;13991;51.174;4.438;2023-11-18T15:55:31;10.90;99.90
26081;DHT22;13991;51.174;4.438;2023-11-18T15:57:57;11.00;99.90
26081;DHT22;13991;51.174;4.438;2023-11-18T16:00:25;11.10;99.90
26081;DHT22;13991;51.174;4.438;2023-11-18T16:02:52;11.10;99.90
26081;DHT22;13991;51.174;4.438;2023-11-18T16:05:20;11.30;99.90
26081;DHT22;13991;51.174;4.438;2023-11-18T16:07:51;11.40;99.90
26081;DHT22;13991;51.174;4.438;2023-11-18T16:10:17;11.40;99.90
26081;DHT22;13991;51.174;4.438;2023-11-18T16:12:49;11.20;99.90
26081;DHT22;13991;51.174;4.438;2023-11-18T16:15:22;11.10;99.90
26081;DHT22;13991;51.174;4.438;2023-11-18T16:17:49;11.30;99.90
26081;DHT22;13991;51.174;4.438;2023-11-18T16:20:19;11.40;99.90
26081;DHT22;13991;51.174;4.438;2023-11-18T16:22:47;11.20;99.90
26081;DHT22;13991;51.174;4.438;2023-11-18T16:25:17;11.30;99.90
26081;DHT22;13991;51.174;4.438;2023-11-18T16:27:45;11.40;99.90
26081;DHT22;13991;51.174;4.438;2023-11-18T16:30:12;11.50;99.90
26081;DHT22;13991;51.174;4.438;2023-11-18T16:32:38;11.60;99.90
26081;DHT22;13991;51.174;4.438;2023-11-18T16:35:04;11.60;99.90
26081;DHT22;13991;51.174;4.438;2023-11-18T16:37:33;11.60;99.90
26081;DHT22;13991;51.174;4.438;2023-11-18T16:39:59;11.50;99.90
26081;DHT22;13991;51.174;4.438;2023-11-18T16:42:25;11.50;99.90
26081;DHT22;13991;51.174;4.438;2023-11-18T16:44:53;11.50;99.90
26081;DHT22;13991;51.174;4.438;2023-11-18T16:47:19;11.70;99.90
26081;DHT22;13991;51.174;4.438;2023-11-18T16:49:45;11.80;99.90
26081;DHT22;13991;51.174;4.438;2023-11-18T16:52:10;11.80;99.90
26081;DHT22;13991;51.174;4.438;2023-11-18T16:54:37;11.70;99.90
26081;DHT22;13991;51.174;4.438;2023-11-18T16:57:02;11.80;99.90
26081;DHT22;13991;51.174;4.438;2023-11-18T16:59:28;11.80;99.90
26081;DHT22;13991;51.174;4.438;2023-11-18T17:01:55;11.90;99.90
26081;DHT22;13991;51.174;4.438;2023-11-18T17:04:21;12.00;99.90
26081;DHT22;13991;51.174;4.438;2023-11-18T17:06:46;12.00;99.90
26081;DHT22;13991;51.174;4.438;2023-11-18T17:09:12;12.00;99.90
26081;DHT22;13991;51.174;4.438;2023-11-18T17:11:38;12.00;99.90
26081;DHT22;13991;51.174;4.438;2023-11-18T17:14:03;12.00;99.90
26081;DHT22;13991;51.174;4.438;2023-11-18T17:16:31;12.00;99.90
26081;DHT22;13991;51.174;4.438;2023-11-18T17:18:57;12.10;99.90
26081;DHT22;13991;51.174;4.438;2023-11-18T17:21:23;12.10;99.90
26081;DHT22;13991;51.174;4.438;2023-11-18T17:23:48;12.10;99.90
26081;DHT22;13991;51.174;4.438;2023-11-18T17:26:16;12.00;99.90
26081;DHT22;13991;51.174;4.438;2023-11-18T17:28:41;12.00;99.90
26081;DHT22;13991;51.174;4.438;2023-11-18T17:31:07;12.00;99.90
26081;DHT22;13991;51.174;4.438;2023-11-18T17:33:33;12.10;99.90
26081;DHT22;13991;51.174;4.438;2023-11-18T17:36:00;12.30;99.90
26081;DHT22;13991;51.174;4.438;2023-11-18T17:38:27;12.30;99.90
26081;DHT22;13991;51.174;4.438;2023-11-18T17:40:53;12.30;99.90
26081;DHT22;13991;51.174;4.438;2023-11-18T17:43:19;12.30;99.90
26081;DHT22;13991;51.174;4.438;2023-11-18T17:45:44;12.30;99.90
26081;DHT22;13991;51.174;4.438;2023-11-18T17:48:11;12.30;99.90
26081;DHT22;13991;51.174;4.438;2023-11-18T17:50:38;12.30;99.90
26081;DHT22;13991;51.174;4.438;2023-11-18T17:53:04;12.30;99.90
26081;DHT22;13991;51.174;4.438;2023-11-18T17:55:31;12.30;99.90
26081;DHT22;13991;51.174;4.438;2023-11-18T17:57:57;12.30;99.90
26081;DHT22;13991;51.174;4.438;2023-11-18T18:00:23;12.50;99.90
26081;DHT22;13991;51.174;4.438;2023-11-18T18:02:50;12.50;99.90
26081;DHT22;13991;51.174;4.438;2023-11-18T18:05:16;12.70;99.90
26081;DHT22;13991;51.174;4.438;2023-11-18T18:07:42;12.80;99.90
26081;DHT22;13991;51.174;4.438;2023-11-18T18:10:09;12.80;99.90
26081;DHT22;13991;51.174;4.438;2023-11-18T18:12:36;12.80;99.90
26081;DHT22;13991;51.174;4.438;2023-11-18T18:15:02;12.70;99.90
26081;DHT22;13991;51.174;4.438;2023-11-18T18:17:31;12.50;99.90
26081;DHT22;13991;51.174;4.438;2023-11-18T18:19:56;12.50;99.90
26081;DHT22;13991;51.174;4.438;2023-11-18T18:22:24;12.70;99.90
26081;DHT22;13991;51.174;4.438;2023-11-18T18:24:49;12.80;99.90
26081;DHT22;13991;51.174;4.438;2023-11-18T18:27:15;12.80;99.90
26081;DHT22;13991;51.174;4.438;2023-11-18T18:29:42;12.80;99.90
26081;DHT22;13991;51.174;4.438;2023-11-18T18:32:07;12.90;99.90
26081;DHT22;13991;51.174;4.438;2023-11-18T18:34:36;12.90;99.90
26081;DHT22;13991;51.174;4.438;2023-11-18T18:37:02;13.00;99.90
26081;DHT22;13991;51.174;4.438;2023-11-18T18:39:28;13.00;99.90
26081;DHT22;13991;51.174;4.438;2023-11-18T18:41:54;13.00;99.90
26081;DHT22;13991;51.174;4.438;2023-11-18T18:44:21;12.90;99.90
26081;DHT22;13991;51.174;4.438;2023-11-18T18:46:46;12.60;99.90
26081;DHT22;13991;51.174;4.438;2023-11-18T18:49:12;12.70;99.90
26081;DHT22;13991;51.174;4.438;2023-11-18T18:51:40;12.90;99.90
26081;DHT22;13991;51.174;4.438;2023-11-18T18:54:06;13.10;99.90
26081;DHT22;13991;51.174;4.438;2023-11-18T18:56:32;13.10;99.90
26081;DHT22;13991;51.174;4.438;2023-11-18T18:59:00;13.00;99.90
26081;DHT22;13991;51.174;4.438;2023-11-18T19:01:40;13.20;99.90
26081;DHT22;13991;51.174;4.438;2023-11-18T19:04:10;13.10;99.90
26081;DHT22;13991;51.174;4.438;2023-11-18T19:06:37;13.30;99.90
26081;DHT22;13991;51.174;4.438;2023-11-18T19:09:07;13.30;99.90
26081;DHT22;13991;51.174;4.438;2023-11-18T19:11:34;13.20;99.90
26081;DHT22;13991;51.174;4.438;2023-11-18T19:14:00;13.30;99.90
26081;DHT22;13991;51.174;4.438;2023-11-18T19:16:26;13.30;99.90
26081;DHT22;13991;51.174;4.438;2023-11-18T19:18:52;13.40;99.90
26081;DHT22;13991;51.174;4.438;2023-11-18T19:21:20;13.40;99.90
26081;DHT22;13991;51.174;4.438;2023-11-18T19:23:45;13.30;99.90
26081;DHT22;13991;51.174;4.438;2023-11-18T19:26:11;13.40;99.90
26081;DHT22;13991;51.174;4.438;2023-11-18T19:28:36;13.40;99.90
26081;DHT22;13991;51.174;4.438;2023-11-18T19:31:02;13.40;99.90
26081;DHT22;13991;51.174;4.438;2023-11-18T19:33:29;13.40;99.90
26081;DHT22;13991;51.174;4.438;2023-11-18T19:35:54;13.50;99.90
26081;DHT22;13991;51.174;4.438;2023-11-18T19:38:20;13.40;99.90
26081;DHT22;13991;51.174;4.438;2023-11-18T19:40:45;13.50;99.90
26081;DHT22;13991;51.174;4.438;2023-11-18T19:43:11;13.50;99.90
26081;DHT22;13991;51.174;4.438;2023-11-18T19:45:38;13.60;99.90
26081;DHT22;13991;51.174;4.438;2023-11-18T19:48:04;13.60;99.90
26081;DHT22;13991;51.174;4.438;2023-11-18T19:50:31;13.60;99.90
26081;DHT22;13991;51.174;4.438;2023-11-18T19:52:57;13.60;99.90
26081;DHT22;13991;51.174;4.438;2023-11-18T19:55:22;13.50;99.90
26081;DHT22;13991;51.174;4.438;2023-11-18T19:57:48;13.50;99.90
26081;DHT22;13991;51.174;4.438;2023-11-18T20:00:14;13.60;99.90
26081;DHT22;13991;51.174;4.438;2023-11-18T20:02:44;13.60;99.90
26081;DHT22;13991;51.174;4.438;2023-11-18T20:05:09;13.40;99.90
26081;DHT22;13991;51.174;4.438;2023-11-18T20:07:35;13.50;99.90
26081;DHT22;13991;51.174;4.438;2023-11-18T20:10:01;13.60;99.90
26081;DHT22;13991;51.174;4.438;2023-11-18T20:12:27;13.50;99.90
26081;DHT22;13991;51.174;4.438;2023-11-18T20:14:53;13.60;99.90
26081;DHT22;13991;51.174;4.438;2023-11-18T20:17:19;13.70;99.90
26081;DHT22;13991;51.174;4.438;2023-11-18T20:19:44;13.60;99.90
26081;DHT22;13991;51.174;4.438;2023-11-18T20:22:10;13.70;99.90
26081;DHT22;13991;51.174;4.438;2023-11-18T20:24:36;13.90;99.90
26081;DHT22;13991;51.174;4.438;2023-11-18T20:27:03;13.80;99.90
26081;DHT22;13991;51.174;4.438;2023-11-18T20:29:29;13.80;99.90
26081;DHT22;13991;51.174;4.438;2023-11-18T20:31:55;13.70;99.90
26081;DHT22;13991;51.174;4.438;2023-11-18T20:34:21;13.60;99.90
26081;DHT22;13991;51.174;4.438;2023-11-18T20:36:47;13.60;99.90
26081;DHT22;13991;51.174;4.438;2023-11-18T20:39:14;13.70;99.90
26081;DHT22;13991;51.174;4.438;2023-11-18T20:41:46;13.80;99.90
26081;DHT22;13991;51.174;4.438;2023-11-18T20:44:14;13.80;99.90
26081;DHT22;13991;51.174;4.438;2023-11-18T20:46:39;13.90;99.90
26081;DHT22;13991;51.174;4.438;2023-11-18T20:49:06;13.80;99.90
26081;DHT22;13991;51.174;4.438;2023-11-18T20:51:32;13.90;99.90
26081;DHT22;13991;51.174;4.438;2023-11-18T20:53:57;13.90;99.90
26081;DHT22;13991;51.174;4.438;2023-11-18T20:56:24;13.90;99.90
26081;DHT22;13991;51.174;4.438;2023-11-18T20:58:50;13.90;99.90
26081;DHT22;13991;51.174;4.438;2023-11-18T21:01:16;13.80;99.90
26081;DHT22;13991;51.174;4.438;2023-11-18T21:03:43;13.80;99.90
26081;DHT22;13991;51.174;4.438;2023-11-18T21:06:09;13.80;99.90
26081;DHT22;13991;51.174;4.438;2023-11-18T21:08:35;13.80;99.90
26081;DHT22;13991;51.174;4.438;2023-11-18T21:11:00;14.00;99.90
26081;DHT22;13991;51.174;4.438;2023-11-18T21:13:29;14.10;99.90
26081;DHT22;13991;51.174;4.438;2023-11-18T21:15:56;14.00;99.90
26081;DHT22;13991;51.174;4.438;2023-11-18T21:18:22;14.10;99.90
26081;DHT22;13991;51.174;4.438;2023-11-18T21:20:47;14.10;99.90
26081;DHT22;13991;51.174;4.438;2023-11-18T21:23:13;14.00;99.90
26081;DHT22;13991;51.174;4.438;2023-11-18T21:25:40;14.10;99.90
26081;DHT22;13991;51.174;4.438;2023-11-18T21:28:06;14.10;99.90
26081;DHT22;13991;51.174;4.438;2023-11-18T21:30:32;14.10;99.90
26081;DHT22;13991;51.174;4.438;2023-11-18T21:32:57;14.00;99.90
26081;DHT22;13991;51.174;4.438;2023-11-18T21:35:25;14.00;99.90
26081;DHT22;13991;51.174;4.438;2023-11-18T21:37:50;14.10;99.90
26081;DHT22;13991;51.174;4.438;2023-11-18T21:40:17;14.10;99.90
26081;DHT22;13991;51.174;4.438;2023-11-18T21:42:45;14.10;99.90
26081;DHT22;13991;51.174;4.438;2023-11-18T21:45:11;14.10;99.90
26081;DHT22;13991;51.174;4.438;2023-11-18T21:47:40;14.10;99.90
26081;DHT22;13991;51.174;4.438;2023-11-18T21:50:13;14.10;99.90
26081;DHT22;13991;51.174;4.438;2023-11-18T21:52:42;14.10;99.90
26081;DHT22;13991;51.174;4.438;2023-11-18T21:55:09;14.10;99.90
26081;DHT22;13991;51.174;4.438;2023-11-18T21:57:35;14.10;99.90
26081;DHT22;13991;51.174;4.438;2023-11-18T22:00:06;14.10;99.90
26081;DHT22;13991;51.174;4.438;2023-11-18T22:02:34;14.10;99.90
26081;DHT22;13991;51.174;4.438;2023-11-18T22:05:00;14.10;99.90
26081;DHT22;13991;51.174;4.438;2023-11-18T22:07:26;14.00;99.90
26081;DHT22;13991;51.174;4.438;2023-11-18T22:09:51;14.10;99.90
26081;DHT22;13991;51.174;4.438;2023-11-18T22:12:17;14.10;99.90
26081;DHT22;13991;51.174;4.438;2023-11-18T22:14:43;14.10;99.90
26081;DHT22;13991;51.174;4.438;2023-11-18T22:17:08;14.00;99.90
26081;DHT22;13991;51.174;4.438;2023-11-18T22:19:35;13.70;99.90
26081;DHT22;13991;51.174;4.438;2023-11-18T22:22:01;13.50;99.90
26081;DHT22;13991;51.174;4.438;2023-11-18T22:24:28;13.50;99.90
26081;DHT22;13991;51.174;4.438;2023-11-18T22:26:55;13.70;99.90
26081;DHT22;13991;51.174;4.438;2023-11-18T22:29:21;14.00;99.90
26081;DHT22;13991;51.174;4.438;2023-11-18T22:31:47;14.10;99.90
26081;DHT22;13991;51.174;4.438;2023-11-18T22:34:14;14.30;99.90
26081;DHT22;13991;51.174;4.438;2023-11-18T22:36:39;14.20;99.90
26081;DHT22;13991;51.174;4.438;2023-11-18T22:39:05;14.20;99.90
26081;DHT22;13991;51.174;4.438;2023-11-18T22:41:38;14.30;99.90
26081;DHT22;13991;51.174;4.438;2023-11-18T22:44:05;14.30;99.90
26081;DHT22;13991;51.174;4.438;2023-11-18T22:46:33;14.20;99.90
26081;DHT22;13991;51.174;4.438;2023-11-18T22:48:58;14.20;99.90
26081;DHT22;13991;51.174;4.438;2023-11-18T22:51:24;14.10;99.90
26081;DHT22;13991;51.174;4.438;2023-11-18T22:53:50;14.20;99.90
26081;DHT22;13991;51.174;4.438;2023-11-18T22:56:17;14.30;99.90
26081;DHT22;13991;51.174;4.438;2023-11-18T22:58:44;14.10;99.90
26081;DHT22;13991;51.174;4.438;2023-11-18T23:01:10;14.30;99.90
26081;DHT22;13991;51.174;4.438;2023-11-18T23:03:39;14.50;99.90
26081;DHT22;13991;51.174;4.438;2023-11-18T23:06:05;14.50;99.90
26081;DHT22;13991;51.174;4.438;2023-11-18T23:08:34;14.50;99.90
26081;DHT22;13991;51.174;4.438;2023-11-18T23:11:00;14.30;99.90
26081;DHT22;13991;51.174;4.438;2023-11-18T23:13:26;14.10;99.90
26081;DHT22;13991;51.174;4.438;2023-11-18T23:15:52;14.10;99.90
26081;DHT22;13991;51.174;4.438;2023-11-18T23:18:23;14.30;99.90
26081;DHT22;13991;51.174;4.438;2023-11-18T23:20:49;14.40;99.90
26081;DHT22;13991;51.174;4.438;2023-11-18T23:23:15;14.40;99.90
26081;DHT22;13991;51.174;4.438;2023-11-18T23:25:42;14.40;99.90
26081;DHT22;13991;51.174;4.438;2023-11-18T23:28:08;14.30;99.90
26081;DHT22;13991;51.174;4.438;2023-11-18T23:30:34;14.40;99.90
26081;DHT22;13991;51.174;4.438;2023-11-18T23:33:00;14.30;99.90
26081;DHT22;13991;51.174;4.438;2023-11-18T23:35:26;14.30;99.90
26081;DHT22;13991;51.174;4.438;2023-11-18T23:37:53;14.40;99.90
26081;DHT22;13991;51.174;4.438;2023-11-18T23:40:20;14.50;99.90
26081;DHT22;13991;51.174;4.438;2023-11-18T23:42:46;14.50;99.90
26081;DHT22;13991;51.174;4.438;2023-11-18T23:45:13;14.30;99.90
26081;DHT22;13991;51.174;4.438;2023-11-18T23:47:40;14.20;99.90
26081;DHT22;13991;51.174;4.438;2023-11-18T23:50:10;14.20;99.90
26081;DHT22;13991;51.174;4.438;2023-11-18T23:52:38;14.30;99.90
26081;DHT22;13991;51.174;4.438;2023-11-18T23:55:05;14.30;99.90
26081;DHT22;13991;51.174;4.438;2023-11-18T23:57:33;14.40;99.90
